createdAt,value
2018-02-18T00:00:08.241Z,80.13
2018-02-18T00:02:33.995Z,80.65
2018-02-18T00:04:59.739Z,80.36
2018-02-18T00:07:25.497Z,81.26
2018-02-18T00:09:51.247Z,79.42
2018-02-18T00:12:17.000Z,78.55
2018-02-18T00:14:44.560Z,78.28
2018-02-18T00:17:10.304Z,78.82
2018-02-18T00:19:36.063Z,78.91
2018-02-18T00:22:01.827Z,78.09
2018-02-18T00:24:27.609Z,78.26
2018-02-18T00:26:53.359Z,77.20
2018-02-18T00:29:19.124Z,77.51
2018-02-18T00:31:44.880Z,76.40
2018-02-18T00:34:10.655Z,77.37
2018-02-18T00:36:36.408Z,77.13
2018-02-18T00:39:02.170Z,77.10
2018-02-18T00:41:27.933Z,78.45
2018-02-18T00:43:53.691Z,78.36
2018-02-18T00:46:19.448Z,78.23
2018-02-18T00:48:45.207Z,78.92
2018-02-18T00:51:10.969Z,78.21
2018-02-18T00:53:36.747Z,77.80
2018-02-18T00:56:02.493Z,77.83
2018-02-18T00:58:28.245Z,78.09
2018-02-18T01:00:54.008Z,77.39
2018-02-18T01:03:19.771Z,79.31
2018-02-18T01:05:45.540Z,79.18
2018-02-18T01:08:11.301Z,79.40
2018-02-18T01:10:37.072Z,79.52
2018-02-18T01:13:02.820Z,80.61
2018-02-18T01:15:28.575Z,80.62
2018-02-18T01:17:54.339Z,80.61
2018-02-18T01:20:20.118Z,80.82
2018-02-18T01:22:45.894Z,81.05
2018-02-18T01:25:11.676Z,81.66
2018-02-18T01:27:37.428Z,80.97
2018-02-18T01:30:03.217Z,81.05
2018-02-18T01:32:28.990Z,81.48
2018-02-18T01:34:54.775Z,80.47
2018-02-18T01:37:20.518Z,80.00
2018-02-18T01:39:46.308Z,79.73
2018-02-18T01:42:12.085Z,79.80
2018-02-18T01:44:37.865Z,79.94
2018-02-18T01:47:03.628Z,80.97
2018-02-18T01:49:29.395Z,80.78
2018-02-18T01:51:55.200Z,81.11
2018-02-18T01:54:20.963Z,81.61
2018-02-18T01:56:46.744Z,81.68
2018-02-18T01:59:12.503Z,82.03
2018-02-18T02:01:38.287Z,81.93
2018-02-18T02:04:04.071Z,81.62
2018-02-18T02:06:29.851Z,81.63
2018-02-18T02:08:55.591Z,82.09
2018-02-18T02:11:21.355Z,81.72
2018-02-18T02:13:47.107Z,81.36
2018-02-18T02:16:12.882Z,81.97
2018-02-18T02:18:38.636Z,82.51
2018-02-18T02:21:04.398Z,82.29
2018-02-18T02:23:30.152Z,82.44
2018-02-18T02:25:55.919Z,83.31
2018-02-18T02:28:21.664Z,83.00
2018-02-18T02:30:47.442Z,83.74
2018-02-18T02:33:13.196Z,83.93
2018-02-18T02:35:38.943Z,83.69
2018-02-18T02:38:04.724Z,85.22
2018-02-18T02:40:30.480Z,84.64
2018-02-18T02:42:56.254Z,84.75
2018-02-18T02:45:22.010Z,84.44
2018-02-18T02:47:47.779Z,84.74
2018-02-18T02:50:13.535Z,84.51
2018-02-18T02:52:39.319Z,84.55
2018-02-18T02:55:05.064Z,84.81
2018-02-18T02:57:30.849Z,85.96
2018-02-18T02:59:56.592Z,85.31
2018-02-18T03:02:22.367Z,85.17
2018-02-18T03:04:48.120Z,85.20
2018-02-18T03:07:13.887Z,85.65
2018-02-18T03:09:39.634Z,85.38
2018-02-18T03:12:05.395Z,85.62
2018-02-18T03:14:31.143Z,85.78
2018-02-18T03:16:56.903Z,85.71
2018-02-18T03:19:22.651Z,85.68
2018-02-18T03:21:48.403Z,86.41
2018-02-18T03:24:14.167Z,86.01
2018-02-18T03:26:39.911Z,85.91
2018-02-18T03:29:05.674Z,86.12
2018-02-18T03:31:31.421Z,86.29
2018-02-18T03:33:57.167Z,86.23
2018-02-18T03:36:22.923Z,86.32
2018-02-18T03:38:48.695Z,86.01
2018-02-18T03:41:14.451Z,87.28
2018-02-18T03:43:40.213Z,86.94
2018-02-18T03:46:05.967Z,87.94
2018-02-18T03:48:33.207Z,87.74
2018-02-18T03:50:59.018Z,86.46
2018-02-18T03:53:24.780Z,86.67
2018-02-18T03:55:50.522Z,87.73
2018-02-18T03:58:16.300Z,88.02
2018-02-18T04:00:42.039Z,86.33
2018-02-18T04:03:07.798Z,88.16
2018-02-18T04:05:33.554Z,87.83
2018-02-18T04:07:59.307Z,88.60
2018-02-18T04:10:25.065Z,89.01
2018-02-18T04:12:50.802Z,88.60
2018-02-18T04:15:16.566Z,86.74
2018-02-18T04:17:42.312Z,86.97
2018-02-18T04:20:08.073Z,86.39
2018-02-18T04:22:33.829Z,86.95
2018-02-18T04:24:59.584Z,88.82
2018-02-18T04:27:25.315Z,86.45
2018-02-18T04:29:51.077Z,86.92
2018-02-18T04:32:16.835Z,85.74
2018-02-18T04:34:42.593Z,86.91
2018-02-18T04:37:08.349Z,88.53
2018-02-18T04:39:34.111Z,87.81
2018-02-18T04:41:59.861Z,87.38
2018-02-18T04:44:25.627Z,88.25
2018-02-18T04:46:51.371Z,86.74
2018-02-18T04:49:17.138Z,86.67
2018-02-18T04:51:42.887Z,86.49
2018-02-18T04:54:08.640Z,87.33
2018-02-18T04:56:34.412Z,86.54
2018-02-18T04:59:00.163Z,86.27
2018-02-18T05:01:25.923Z,86.14
2018-02-18T05:03:51.674Z,86.56
2018-02-18T05:06:17.441Z,86.13
2018-02-18T05:08:43.190Z,85.60
2018-02-18T05:11:08.951Z,85.74
2018-02-18T05:13:34.717Z,85.33
2018-02-18T05:18:42.391Z,86.62
2018-02-18T05:21:08.147Z,86.21
2018-02-18T05:23:33.898Z,86.29
2018-02-18T05:25:59.655Z,85.88
2018-02-18T05:28:25.420Z,85.89
2018-02-18T05:30:51.183Z,86.46
2018-02-18T05:33:16.951Z,85.87
2018-02-18T05:35:42.736Z,85.37
2018-02-18T05:38:08.486Z,85.87
2018-02-18T05:40:34.247Z,85.72
2018-02-18T05:43:00.009Z,85.39
2018-02-18T05:45:25.762Z,85.75
2018-02-18T05:47:51.524Z,85.50
2018-02-18T05:50:17.268Z,85.54
2018-02-18T05:52:43.028Z,85.58
2018-02-18T05:55:08.785Z,85.56
2018-02-18T05:57:34.564Z,85.57
2018-02-18T06:00:00.315Z,85.59
2018-02-18T06:02:26.100Z,85.58
2018-02-18T06:04:51.844Z,85.98
2018-02-18T06:07:17.604Z,85.33
2018-02-18T06:09:43.359Z,85.80
2018-02-18T06:12:09.137Z,85.52
2018-02-18T06:14:34.899Z,85.77
2018-02-18T06:17:00.686Z,85.83
2018-02-18T06:19:26.436Z,86.09
2018-02-18T06:21:52.203Z,86.11
2018-02-18T06:24:17.983Z,86.42
2018-02-18T06:26:43.741Z,86.25
2018-02-18T06:29:09.513Z,86.26
2018-02-18T06:31:35.268Z,86.05
2018-02-18T06:34:01.035Z,86.20
2018-02-18T06:36:26.792Z,86.30
2018-02-18T06:38:52.559Z,86.68
2018-02-18T06:41:18.323Z,86.53
2018-02-18T06:43:44.135Z,86.79
2018-02-18T06:46:09.875Z,86.62
2018-02-18T06:48:35.632Z,86.55
2018-02-18T06:51:01.391Z,86.80
2018-02-18T06:53:27.159Z,86.91
2018-02-18T06:55:52.965Z,87.07
2018-02-18T06:58:18.683Z,86.97
2018-02-18T07:00:44.440Z,87.24
2018-02-18T07:03:10.196Z,87.28
2018-02-18T07:05:35.965Z,87.28
2018-02-18T07:08:01.713Z,87.08
2018-02-18T07:10:27.480Z,87.48
2018-02-18T07:12:53.231Z,87.46
2018-02-18T07:15:19.004Z,87.49
2018-02-18T07:17:44.763Z,87.17
2018-02-18T07:20:10.527Z,87.20
2018-02-18T07:22:36.285Z,87.06
2018-02-18T07:25:02.060Z,86.32
2018-02-18T07:27:27.816Z,85.89
2018-02-18T07:29:53.581Z,85.82
2018-02-18T07:32:19.348Z,85.53
2018-02-18T07:34:45.119Z,85.32
2018-02-18T07:37:10.864Z,84.61
2018-02-18T07:39:36.628Z,84.58
2018-02-18T07:42:02.395Z,84.46
2018-02-18T07:44:28.148Z,84.30
2018-02-18T07:46:53.916Z,84.12
2018-02-18T07:49:19.672Z,84.00
2018-02-18T07:51:45.421Z,83.32
2018-02-18T07:54:11.179Z,83.40
2018-02-18T07:56:36.963Z,83.06
2018-02-18T08:01:33.091Z,82.70
2018-02-18T08:03:58.852Z,82.00
2018-02-18T08:06:24.618Z,81.60
2018-02-18T08:08:50.391Z,81.28
2018-02-18T08:11:16.158Z,80.89
2018-02-18T08:13:41.917Z,80.74
2018-02-18T08:16:07.700Z,80.27
2018-02-18T08:18:33.450Z,80.03
2018-02-18T08:20:59.232Z,79.37
2018-02-18T08:23:24.989Z,79.45
2018-02-18T08:25:50.770Z,78.87
2018-02-18T08:28:16.522Z,77.58
2018-02-18T08:30:42.312Z,77.11
2018-02-18T08:33:08.084Z,76.92
2018-02-18T08:35:33.854Z,75.62
2018-02-18T08:37:59.629Z,75.27
2018-02-18T08:40:25.395Z,74.27
2018-02-18T08:42:51.160Z,73.16
2018-02-18T08:45:16.920Z,73.43
2018-02-18T08:47:42.706Z,72.85
2018-02-18T08:50:08.460Z,72.82
2018-02-18T08:52:34.270Z,71.57
2018-02-18T08:55:00.013Z,70.97
2018-02-18T08:57:25.792Z,72.00
2018-02-18T08:59:51.564Z,70.43
2018-02-18T09:02:17.343Z,70.92
2018-02-18T09:04:43.104Z,69.90
2018-02-18T09:07:08.875Z,69.62
2018-02-18T09:09:34.633Z,70.02
2018-02-18T09:12:00.407Z,69.69
2018-02-18T09:14:26.173Z,69.37
2018-02-18T09:16:51.959Z,68.96
2018-02-18T09:19:17.730Z,68.74
2018-02-18T09:21:43.500Z,68.14
2018-02-18T09:24:09.276Z,66.86
2018-02-18T09:26:35.052Z,67.25
2018-02-18T09:29:00.832Z,66.56
2018-02-18T09:31:26.603Z,66.81
2018-02-18T09:33:52.379Z,66.10
2018-02-18T09:36:18.140Z,65.08
2018-02-18T09:38:43.912Z,65.46
2018-02-18T09:41:09.671Z,63.86
2018-02-18T09:43:36.967Z,63.84
2018-02-18T09:46:02.760Z,62.65
2018-02-18T09:48:28.548Z,63.80
2018-02-18T09:50:54.303Z,63.61
2018-02-18T09:53:20.083Z,63.96
2018-02-18T09:55:45.840Z,61.76
2018-02-18T09:58:11.620Z,62.42
2018-02-18T10:00:37.381Z,61.31
2018-02-18T10:03:03.155Z,62.08
2018-02-18T10:05:28.936Z,61.63
2018-02-18T10:07:54.707Z,61.56
2018-02-18T10:10:20.488Z,59.52
2018-02-18T10:12:46.243Z,60.63
2018-02-18T10:15:12.014Z,60.25
2018-02-18T10:17:37.779Z,60.00
2018-02-18T10:20:03.641Z,58.39
2018-02-18T10:22:29.417Z,59.26
2018-02-18T10:24:55.221Z,59.91
2018-02-18T10:27:21.009Z,57.67
2018-02-18T10:29:46.783Z,59.14
2018-02-18T10:32:12.555Z,58.21
2018-02-18T10:34:38.355Z,58.89
2018-02-18T10:37:04.127Z,58.87
2018-02-18T10:39:29.920Z,58.53
2018-02-18T10:41:55.702Z,59.64
2018-02-18T10:44:21.484Z,58.63
2018-02-18T10:46:47.271Z,59.09
2018-02-18T10:49:13.085Z,59.08
2018-02-18T10:51:38.877Z,59.84
2018-02-18T10:54:04.655Z,59.38
2018-02-18T10:56:30.430Z,59.29
2018-02-18T10:58:56.207Z,59.04
2018-02-18T11:01:21.980Z,58.99
2018-02-18T11:03:47.752Z,59.18
2018-02-18T11:06:13.532Z,59.29
2018-02-18T11:08:39.294Z,59.98
2018-02-18T11:11:05.078Z,59.40
2018-02-18T11:13:30.840Z,57.73
2018-02-18T11:15:56.615Z,58.46
2018-02-18T11:18:22.405Z,59.77
2018-02-18T11:20:48.202Z,58.75
2018-02-18T11:23:13.951Z,58.71
2018-02-18T11:25:39.742Z,57.63
2018-02-18T11:28:05.549Z,58.44
2018-02-18T11:30:31.389Z,59.32
2018-02-18T11:32:57.201Z,60.56
2018-02-18T11:35:24.174Z,60.36
2018-02-18T11:37:49.948Z,60.72
2018-02-18T11:40:15.719Z,61.07
2018-02-18T11:42:41.496Z,60.17
2018-02-18T11:45:07.328Z,61.15
2018-02-18T11:47:33.318Z,60.38
2018-02-18T11:49:59.088Z,60.28
2018-02-18T11:52:24.884Z,59.34
2018-02-18T11:54:50.646Z,59.39
2018-02-18T11:57:16.472Z,59.01
2018-02-18T11:59:42.222Z,58.57
2018-02-18T12:02:08.804Z,58.84
2018-02-18T12:04:34.611Z,57.94
2018-02-18T12:07:00.403Z,58.14
2018-02-18T12:09:26.168Z,59.03
2018-02-18T12:11:51.993Z,58.04
2018-02-18T12:14:17.751Z,56.29
2018-02-18T12:16:43.543Z,57.88
2018-02-18T12:19:09.393Z,58.07
2018-02-18T12:21:35.251Z,58.23
2018-02-18T12:24:01.027Z,58.59
2018-02-18T12:26:26.903Z,56.99
2018-02-18T12:28:52.665Z,57.43
2018-02-18T12:31:18.495Z,57.89
2018-02-18T12:33:44.260Z,57.66
2018-02-18T12:36:10.047Z,57.77
2018-02-18T12:38:36.160Z,59.53
2018-02-18T12:41:01.948Z,56.58
2018-02-18T12:43:27.753Z,57.10
2018-02-18T12:45:53.519Z,58.80
2018-02-18T12:48:19.455Z,58.32
2018-02-18T12:50:45.399Z,57.10
2018-02-18T12:53:11.225Z,57.12
2018-02-18T12:55:36.999Z,58.15
2018-02-18T12:58:02.795Z,58.17
2018-02-18T13:00:28.595Z,57.79
2018-02-18T13:02:54.364Z,58.01
2018-02-18T13:05:20.202Z,57.27
2018-02-18T13:07:45.976Z,58.10
2018-02-18T13:10:11.769Z,58.06
2018-02-18T13:12:37.541Z,57.34
2018-02-18T13:15:03.324Z,58.26
2018-02-18T13:17:29.096Z,57.83
2018-02-18T13:19:54.872Z,58.31
2018-02-18T13:22:20.647Z,59.14
2018-02-18T13:24:46.442Z,58.76
2018-02-18T13:27:12.213Z,59.08
2018-02-18T13:29:37.986Z,58.67
2018-02-18T13:32:03.757Z,58.26
2018-02-18T13:34:29.540Z,58.26
2018-02-18T13:36:55.318Z,57.59
2018-02-18T13:39:21.106Z,57.88
2018-02-18T13:41:46.879Z,58.57
2018-02-18T13:44:12.652Z,58.58
2018-02-18T13:46:38.444Z,59.10
2018-02-18T13:49:04.212Z,58.87
2018-02-18T13:51:29.984Z,59.13
2018-02-18T13:53:55.780Z,59.40
2018-02-18T13:56:21.544Z,59.28
2018-02-18T13:58:47.319Z,59.58
2018-02-18T14:01:13.096Z,59.46
2018-02-18T14:03:38.870Z,59.62
2018-02-18T14:06:04.655Z,58.97
2018-02-18T14:08:30.431Z,59.76
2018-02-18T14:10:56.208Z,59.63
2018-02-18T14:13:22.035Z,59.47
2018-02-18T14:15:47.899Z,58.72
2018-02-18T14:18:13.678Z,59.04
2018-02-18T14:20:39.456Z,59.70
2018-02-18T14:23:05.290Z,59.89
2018-02-18T14:25:31.055Z,59.12
2018-02-18T14:27:56.824Z,58.94
2018-02-18T14:30:22.603Z,58.95
2018-02-18T14:32:48.357Z,59.06
2018-02-18T14:35:14.161Z,59.26
2018-02-18T14:37:39.920Z,59.58
2018-02-18T14:40:05.711Z,60.44
2018-02-18T14:42:43.812Z,60.53
2018-02-18T14:45:22.137Z,60.31
2018-02-18T14:48:00.307Z,60.77
2018-02-18T14:50:38.359Z,60.79
2018-02-18T14:53:16.471Z,61.46
2018-02-18T14:55:54.529Z,61.58
2018-02-18T14:58:20.276Z,61.75
2018-02-18T15:00:46.045Z,61.51
2018-02-18T15:03:11.808Z,61.76
2018-02-18T15:05:37.579Z,62.41
2018-02-18T15:08:03.344Z,62.88
2018-02-18T15:10:29.123Z,63.22
2018-02-18T15:12:55.420Z,62.62
2018-02-18T15:15:21.170Z,62.79
2018-02-18T15:17:46.936Z,62.88
2018-02-18T15:20:12.697Z,62.44
2018-02-18T15:22:38.487Z,62.26
2018-02-18T15:25:04.238Z,62.51
2018-02-18T15:27:30.004Z,63.36
2018-02-18T15:29:55.775Z,62.73
2018-02-18T15:32:21.562Z,63.60
2018-02-18T15:34:47.311Z,63.57
2018-02-18T15:37:13.076Z,63.55
2018-02-18T15:39:38.835Z,63.98
2018-02-18T15:42:04.614Z,63.36
2018-02-18T15:44:30.371Z,63.56
2018-02-18T15:46:56.192Z,63.75
2018-02-18T15:49:21.915Z,63.79
2018-02-18T15:51:47.695Z,64.17
2018-02-18T15:54:13.456Z,64.73
2018-02-18T15:56:39.223Z,65.21
2018-02-18T15:59:04.993Z,65.56
2018-02-18T16:01:30.767Z,65.46
2018-02-18T16:03:56.528Z,65.82
2018-02-18T16:06:22.302Z,65.66
2018-02-18T16:08:48.064Z,65.60
2018-02-18T16:11:13.836Z,66.06
2018-02-18T16:13:39.595Z,65.79
2018-02-18T16:16:05.383Z,65.86
2018-02-18T16:18:31.136Z,65.26
2018-02-18T16:20:56.904Z,66.31
2018-02-18T16:23:22.686Z,66.37
2018-02-18T16:25:48.428Z,67.00
2018-02-18T16:28:14.196Z,66.87
2018-02-18T16:30:39.957Z,67.57
2018-02-18T16:33:05.724Z,68.09
2018-02-18T16:35:31.478Z,67.93
2018-02-18T16:37:57.247Z,68.71
2018-02-18T16:40:23.015Z,68.58
2018-02-18T16:42:48.821Z,68.65
2018-02-18T16:45:14.568Z,69.35
2018-02-18T16:47:40.512Z,69.55
2018-02-18T16:50:06.264Z,69.72
2018-02-18T16:52:32.032Z,69.94
2018-02-18T16:54:57.788Z,70.75
2018-02-18T16:57:23.572Z,71.00
2018-02-18T16:59:49.329Z,70.80
2018-02-18T17:02:15.088Z,70.57
2018-02-18T17:04:40.877Z,70.85
2018-02-18T17:07:06.634Z,70.78
2018-02-18T17:09:32.395Z,70.98
2018-02-18T17:11:58.147Z,71.14
2018-02-18T17:14:23.917Z,72.00
2018-02-18T17:16:49.663Z,71.89
2018-02-18T17:19:15.419Z,72.40
2018-02-18T17:21:41.174Z,72.12
2018-02-18T17:24:06.952Z,72.53
2018-02-18T17:26:32.720Z,72.97
2018-02-18T17:28:58.490Z,72.57
2018-02-18T17:31:24.262Z,72.55
2018-02-18T17:33:50.034Z,72.89
2018-02-18T17:36:15.780Z,73.00
2018-02-18T17:38:41.563Z,73.27
2018-02-18T17:41:07.314Z,73.17
2018-02-18T17:43:33.085Z,73.27
2018-02-18T17:45:58.851Z,72.95
2018-02-18T17:48:24.611Z,72.94
2018-02-18T17:50:50.376Z,72.75
2018-02-18T17:53:16.135Z,73.69
2018-02-18T17:55:41.904Z,74.04
2018-02-18T17:58:07.655Z,74.04
2018-02-18T18:00:33.424Z,73.94
2018-02-18T18:02:59.216Z,74.32
2018-02-18T18:05:24.944Z,74.22
2018-02-18T18:07:50.693Z,73.87
2018-02-18T18:10:16.454Z,74.24
2018-02-18T18:12:42.253Z,74.34
2018-02-18T18:15:07.980Z,75.06
2018-02-18T18:17:33.727Z,75.90
2018-02-18T18:19:59.511Z,76.49
2018-02-18T18:22:25.264Z,76.64
2018-02-18T18:24:51.039Z,76.56
2018-02-18T18:27:16.783Z,75.78
2018-02-18T18:29:42.519Z,76.25
2018-02-18T18:32:08.293Z,76.31
2018-02-18T18:34:34.043Z,76.27
2018-02-18T18:36:59.815Z,76.94
2018-02-18T18:39:25.581Z,77.74
2018-02-18T18:41:51.351Z,77.85
2018-02-18T18:44:17.105Z,78.47
2018-02-18T18:46:42.875Z,78.86
2018-02-18T18:49:08.616Z,78.88
2018-02-18T18:51:34.368Z,78.70
2018-02-18T18:54:00.116Z,78.23
2018-02-18T18:56:25.878Z,77.15
2018-02-18T18:58:51.652Z,77.77
2018-02-18T19:01:17.420Z,78.40
2018-02-18T19:03:43.185Z,78.35
2018-02-18T19:06:08.951Z,77.08
2018-02-18T19:08:34.706Z,76.73
2018-02-18T19:11:00.483Z,76.44
2018-02-18T19:13:26.244Z,76.39
2018-02-18T19:15:52.003Z,77.00
2018-02-18T19:18:17.783Z,76.40
2018-02-18T19:20:43.543Z,75.95
2018-02-18T19:23:09.308Z,76.00
2018-02-18T19:25:35.063Z,76.37
2018-02-18T19:28:00.839Z,76.49
2018-02-18T19:30:26.619Z,77.09
2018-02-18T19:32:52.387Z,76.85
2018-02-18T19:35:18.145Z,76.45
2018-02-18T19:37:43.924Z,76.00
2018-02-18T19:40:09.672Z,75.68
2018-02-18T19:42:35.449Z,75.26
2018-02-18T19:45:01.220Z,74.90
2018-02-18T19:47:26.983Z,73.99
2018-02-18T19:49:52.752Z,75.49
2018-02-18T19:52:18.528Z,75.65
2018-02-18T19:54:44.269Z,74.93
2018-02-18T19:57:10.044Z,74.59
2018-02-18T19:59:35.811Z,74.00
2018-02-18T20:02:02.495Z,73.81
2018-02-18T20:04:28.270Z,73.93
2018-02-18T20:06:54.012Z,73.70
2018-02-18T20:09:19.761Z,73.58
2018-02-18T20:11:45.527Z,73.84
2018-02-18T20:14:11.299Z,74.32
2018-02-18T20:16:37.046Z,74.63
2018-02-18T20:19:02.806Z,74.45
2018-02-18T20:21:28.565Z,74.74
2018-02-18T20:23:54.343Z,74.77
2018-02-18T20:26:20.111Z,74.97
2018-02-18T20:28:45.886Z,74.69
2018-02-18T20:31:11.643Z,74.46
2018-02-18T20:33:37.423Z,74.49
2018-02-18T20:36:03.186Z,74.80
2018-02-18T20:38:28.975Z,74.28
2018-02-18T20:40:54.762Z,74.48
2018-02-18T20:43:20.566Z,74.08
2018-02-18T20:45:46.348Z,74.11
2018-02-18T20:48:12.108Z,74.64
2018-02-18T20:50:37.893Z,74.38
2018-02-18T20:53:03.658Z,74.22
2018-02-18T20:55:29.431Z,73.96
2018-02-18T20:57:55.204Z,74.01
2018-02-18T21:00:20.989Z,73.54
2018-02-18T21:02:46.743Z,73.93
2018-02-18T21:05:12.518Z,73.54
2018-02-18T21:07:38.292Z,73.91
2018-02-18T21:10:04.064Z,74.09
2018-02-18T21:12:29.832Z,74.32
2018-02-18T21:14:55.617Z,74.21
2018-02-18T21:17:21.371Z,74.26
2018-02-18T21:19:47.143Z,74.52
2018-02-18T21:22:12.910Z,73.73
2018-02-18T21:24:38.681Z,73.79
2018-02-18T21:27:04.449Z,73.82
2018-02-18T21:29:30.194Z,74.13
2018-02-18T21:31:55.957Z,74.21
2018-02-18T21:34:21.720Z,74.13
2018-02-18T21:36:47.494Z,74.22
2018-02-18T21:39:13.246Z,74.06
2018-02-18T21:41:39.021Z,74.01
2018-02-18T21:44:04.781Z,74.34
2018-02-18T21:46:30.573Z,74.08
2018-02-18T21:48:56.357Z,73.65
2018-02-18T21:51:22.127Z,74.47
2018-02-18T21:53:47.940Z,74.15
2018-02-18T21:56:13.707Z,74.23
2018-02-18T21:58:39.470Z,74.09
2018-02-18T22:01:05.256Z,75.21
2018-02-18T22:03:31.008Z,74.68
2018-02-18T22:05:56.788Z,74.92
2018-02-18T22:08:22.548Z,74.59
2018-02-18T22:10:48.314Z,74.65
2018-02-18T22:13:14.084Z,75.01
2018-02-18T22:15:39.855Z,74.57
2018-02-18T22:18:05.616Z,74.69
2018-02-18T22:20:31.367Z,74.94
2018-02-18T22:22:57.127Z,74.96
2018-02-18T22:25:22.879Z,75.03
2018-02-18T22:27:48.651Z,75.05
2018-02-18T22:30:14.416Z,74.65
2018-02-18T22:32:40.179Z,74.99
2018-02-18T22:35:05.939Z,74.74
2018-02-18T22:37:31.711Z,75.20
2018-02-18T22:39:57.465Z,75.48
2018-02-18T22:42:23.235Z,75.15
2018-02-18T22:44:48.991Z,75.22
2018-02-18T22:47:14.759Z,75.39
2018-02-18T22:49:40.525Z,75.42
2018-02-18T22:52:06.308Z,75.56
2018-02-18T22:54:32.060Z,76.16
2018-02-18T22:56:57.831Z,75.90
2018-02-18T22:59:23.592Z,76.04
2018-02-18T23:01:49.355Z,76.18
2018-02-18T23:04:15.121Z,76.71
2018-02-18T23:06:40.883Z,76.60
2018-02-18T23:09:06.979Z,76.82
2018-02-18T23:11:33.077Z,76.91
2018-02-18T23:13:58.927Z,77.14
2018-02-18T23:16:24.987Z,77.08
2018-02-18T23:18:51.091Z,77.06
2018-02-18T23:21:16.868Z,77.07
2018-02-18T23:23:42.800Z,77.49
2018-02-18T23:26:08.559Z,77.60
2018-02-18T23:28:34.387Z,77.77
2018-02-18T23:31:00.139Z,77.96
2018-02-18T23:33:25.910Z,77.86
2018-02-18T23:35:51.667Z,78.27
2018-02-18T23:38:17.433Z,78.09
2018-02-18T23:40:43.200Z,78.43
2018-02-18T23:43:08.951Z,78.20
2018-02-18T23:45:34.732Z,78.46
2018-02-18T23:48:00.478Z,78.21
2018-02-18T23:50:26.412Z,78.17
2018-02-18T23:52:52.178Z,78.17
2018-02-18T23:55:17.948Z,78.69
2018-02-18T23:57:43.723Z,78.80
